sensor_id;sensor_type;location;lat;lon;timestamp;P1;durP1;ratioP1;P2;durP2;ratioP2
42192;SDS011;52467;40.114;18.306;2023-08-08T00:00:20;0.10;;;0.10;;
42192;SDS011;52467;40.114;18.306;2023-08-08T00:02:48;0.10;;;0.10;;
42192;SDS011;52467;40.114;18.306;2023-08-08T00:05:15;0.10;;;0.10;;
42192;SDS011;52467;40.114;18.306;2023-08-08T00:07:42;0.10;;;0.10;;
42192;SDS011;52467;40.114;18.306;2023-08-08T00:10:10;0.10;;;0.10;;
42192;SDS011;52467;40.114;18.306;2023-08-08T00:12:37;0.10;;;0.10;;
42192;SDS011;52467;40.114;18.306;2023-08-08T00:15:05;0.10;;;0.10;;
42192;SDS011;52467;40.114;18.306;2023-08-08T00:17:32;0.10;;;0.10;;
42192;SDS011;52467;40.114;18.306;2023-08-08T00:20:00;0.10;;;0.10;;
42192;SDS011;52467;40.114;18.306;2023-08-08T00:22:27;0.10;;;0.10;;
42192;SDS011;52467;40.114;18.306;2023-08-08T00:24:55;0.10;;;0.10;;
42192;SDS011;52467;40.114;18.306;2023-08-08T00:27:23;0.10;;;0.10;;
42192;SDS011;52467;40.114;18.306;2023-08-08T00:29:51;0.10;;;0.10;;
42192;SDS011;52467;40.114;18.306;2023-08-08T00:32:19;0.10;;;0.10;;
42192;SDS011;52467;40.114;18.306;2023-08-08T00:34:47;0.10;;;0.10;;
42192;SDS011;52467;40.114;18.306;2023-08-08T00:37:15;0.10;;;0.10;;
42192;SDS011;52467;40.114;18.306;2023-08-08T00:39:42;0.10;;;0.10;;
42192;SDS011;52467;40.114;18.306;2023-08-08T00:42:12;0.10;;;0.10;;
42192;SDS011;52467;40.114;18.306;2023-08-08T00:44:40;0.10;;;0.10;;
42192;SDS011;52467;40.114;18.306;2023-08-08T00:47:08;0.10;;;0.10;;
42192;SDS011;52467;40.114;18.306;2023-08-08T00:49:35;0.10;;;0.10;;
42192;SDS011;52467;40.114;18.306;2023-08-08T00:52:04;0.10;;;0.10;;
42192;SDS011;52467;40.114;18.306;2023-08-08T00:54:33;0.10;;;0.10;;
42192;SDS011;52467;40.114;18.306;2023-08-08T00:57:01;0.10;;;0.10;;
42192;SDS011;52467;40.114;18.306;2023-08-08T00:59:28;0.10;;;0.10;;
42192;SDS011;52467;40.114;18.306;2023-08-08T01:01:56;0.10;;;0.10;;
42192;SDS011;52467;40.114;18.306;2023-08-08T01:04:25;0.10;;;0.10;;
42192;SDS011;52467;40.114;18.306;2023-08-08T01:09:41;0.10;;;0.10;;
42192;SDS011;52467;40.114;18.306;2023-08-08T01:12:12;0.10;;;0.10;;
42192;SDS011;52467;40.114;18.306;2023-08-08T01:14:41;0.10;;;0.10;;
42192;SDS011;52467;40.114;18.306;2023-08-08T01:17:10;0.10;;;0.10;;
42192;SDS011;52467;40.114;18.306;2023-08-08T01:19:38;0.10;;;0.10;;
42192;SDS011;52467;40.114;18.306;2023-08-08T01:22:07;0.10;;;0.10;;
42192;SDS011;52467;40.114;18.306;2023-08-08T01:24:39;0.10;;;0.10;;
42192;SDS011;52467;40.114;18.306;2023-08-08T01:27:06;0.10;;;0.10;;
42192;SDS011;52467;40.114;18.306;2023-08-08T01:29:34;0.10;;;0.10;;
42192;SDS011;52467;40.114;18.306;2023-08-08T01:32:01;0.10;;;0.10;;
42192;SDS011;52467;40.114;18.306;2023-08-08T01:34:30;0.10;;;0.10;;
42192;SDS011;52467;40.114;18.306;2023-08-08T01:37:06;0.10;;;0.10;;
42192;SDS011;52467;40.114;18.306;2023-08-08T01:39:59;0.10;;;0.10;;
42192;SDS011;52467;40.114;18.306;2023-08-08T01:42:27;0.10;;;0.10;;
42192;SDS011;52467;40.114;18.306;2023-08-08T01:44:56;0.10;;;0.10;;
42192;SDS011;52467;40.114;18.306;2023-08-08T01:47:24;0.10;;;0.10;;
42192;SDS011;52467;40.114;18.306;2023-08-08T01:49:51;0.10;;;0.10;;
42192;SDS011;52467;40.114;18.306;2023-08-08T01:52:19;0.10;;;0.10;;
42192;SDS011;52467;40.114;18.306;2023-08-08T01:54:46;0.10;;;0.10;;
42192;SDS011;52467;40.114;18.306;2023-08-08T01:57:14;0.10;;;0.10;;
42192;SDS011;52467;40.114;18.306;2023-08-08T01:59:41;0.10;;;0.10;;
42192;SDS011;52467;40.114;18.306;2023-08-08T02:02:08;0.10;;;0.10;;
42192;SDS011;52467;40.114;18.306;2023-08-08T02:04:36;0.10;;;0.10;;
42192;SDS011;52467;40.114;18.306;2023-08-08T02:07:03;0.10;;;0.10;;
42192;SDS011;52467;40.114;18.306;2023-08-08T02:09:31;0.10;;;0.10;;
42192;SDS011;52467;40.114;18.306;2023-08-08T02:11:59;0.10;;;0.10;;
42192;SDS011;52467;40.114;18.306;2023-08-08T02:14:26;0.10;;;0.10;;
42192;SDS011;52467;40.114;18.306;2023-08-08T02:16:53;0.10;;;0.10;;
42192;SDS011;52467;40.114;18.306;2023-08-08T02:19:21;0.10;;;0.10;;
42192;SDS011;52467;40.114;18.306;2023-08-08T02:21:48;0.10;;;0.10;;
42192;SDS011;52467;40.114;18.306;2023-08-08T02:24:17;0.10;;;0.10;;
42192;SDS011;52467;40.114;18.306;2023-08-08T02:26:44;0.10;;;0.10;;
42192;SDS011;52467;40.114;18.306;2023-08-08T02:29:13;0.10;;;0.10;;
42192;SDS011;52467;40.114;18.306;2023-08-08T02:31:40;0.10;;;0.10;;
42192;SDS011;52467;40.114;18.306;2023-08-08T02:34:08;0.10;;;0.10;;
42192;SDS011;52467;40.114;18.306;2023-08-08T02:36:35;0.10;;;0.10;;
42192;SDS011;52467;40.114;18.306;2023-08-08T02:39:02;0.10;;;0.10;;
42192;SDS011;52467;40.114;18.306;2023-08-08T02:41:30;0.10;;;0.10;;
42192;SDS011;52467;40.114;18.306;2023-08-08T02:43:57;0.10;;;0.10;;
42192;SDS011;52467;40.114;18.306;2023-08-08T02:46:25;0.10;;;0.10;;
42192;SDS011;52467;40.114;18.306;2023-08-08T02:48:52;0.10;;;0.10;;
42192;SDS011;52467;40.114;18.306;2023-08-08T02:51:20;0.10;;;0.10;;
42192;SDS011;52467;40.114;18.306;2023-08-08T02:53:47;0.10;;;0.10;;
42192;SDS011;52467;40.114;18.306;2023-08-08T02:56:14;0.10;;;0.10;;
42192;SDS011;52467;40.114;18.306;2023-08-08T02:58:42;0.10;;;0.10;;
42192;SDS011;52467;40.114;18.306;2023-08-08T03:01:09;0.10;;;0.10;;
42192;SDS011;52467;40.114;18.306;2023-08-08T03:03:40;0.10;;;0.10;;
42192;SDS011;52467;40.114;18.306;2023-08-08T03:06:08;0.10;;;0.10;;
42192;SDS011;52467;40.114;18.306;2023-08-08T03:08:36;0.10;;;0.10;;
42192;SDS011;52467;40.114;18.306;2023-08-08T03:11:04;0.10;;;0.10;;
42192;SDS011;52467;40.114;18.306;2023-08-08T03:13:32;0.10;;;0.10;;
42192;SDS011;52467;40.114;18.306;2023-08-08T03:16:00;0.10;;;0.10;;
42192;SDS011;52467;40.114;18.306;2023-08-08T03:18:27;0.10;;;0.10;;
42192;SDS011;52467;40.114;18.306;2023-08-08T03:20:56;0.10;;;0.10;;
42192;SDS011;52467;40.114;18.306;2023-08-08T03:23:23;0.10;;;0.10;;
42192;SDS011;52467;40.114;18.306;2023-08-08T03:25:52;0.10;;;0.10;;
42192;SDS011;52467;40.114;18.306;2023-08-08T03:28:19;0.10;;;0.10;;
42192;SDS011;52467;40.114;18.306;2023-08-08T03:30:47;0.10;;;0.10;;
42192;SDS011;52467;40.114;18.306;2023-08-08T03:33:14;0.10;;;0.10;;
42192;SDS011;52467;40.114;18.306;2023-08-08T03:35:42;0.10;;;0.10;;
42192;SDS011;52467;40.114;18.306;2023-08-08T03:38:11;0.10;;;0.10;;
42192;SDS011;52467;40.114;18.306;2023-08-08T03:40:38;0.10;;;0.10;;
42192;SDS011;52467;40.114;18.306;2023-08-08T03:43:07;0.10;;;0.10;;
42192;SDS011;52467;40.114;18.306;2023-08-08T03:45:34;0.10;;;0.10;;
42192;SDS011;52467;40.114;18.306;2023-08-08T03:48:02;0.10;;;0.10;;
42192;SDS011;52467;40.114;18.306;2023-08-08T03:50:29;0.10;;;0.10;;
42192;SDS011;52467;40.114;18.306;2023-08-08T03:52:56;0.10;;;0.10;;
42192;SDS011;52467;40.114;18.306;2023-08-08T03:55:24;0.10;;;0.10;;
42192;SDS011;52467;40.114;18.306;2023-08-08T03:57:52;0.10;;;0.10;;
42192;SDS011;52467;40.114;18.306;2023-08-08T04:00:19;0.10;;;0.10;;
42192;SDS011;52467;40.114;18.306;2023-08-08T04:02:46;0.10;;;0.10;;
42192;SDS011;52467;40.114;18.306;2023-08-08T04:05:14;0.10;;;0.10;;
42192;SDS011;52467;40.114;18.306;2023-08-08T04:07:41;0.10;;;0.10;;
42192;SDS011;52467;40.114;18.306;2023-08-08T04:10:08;0.10;;;0.10;;
42192;SDS011;52467;40.114;18.306;2023-08-08T04:12:36;0.10;;;0.10;;
42192;SDS011;52467;40.114;18.306;2023-08-08T04:15:03;0.10;;;0.10;;
42192;SDS011;52467;40.114;18.306;2023-08-08T04:17:31;0.10;;;0.10;;
42192;SDS011;52467;40.114;18.306;2023-08-08T04:19:58;0.10;;;0.10;;
42192;SDS011;52467;40.114;18.306;2023-08-08T04:22:26;0.10;;;0.10;;
42192;SDS011;52467;40.114;18.306;2023-08-08T04:24:53;0.10;;;0.10;;
42192;SDS011;52467;40.114;18.306;2023-08-08T04:27:20;0.10;;;0.10;;
42192;SDS011;52467;40.114;18.306;2023-08-08T04:29:48;0.10;;;0.10;;
42192;SDS011;52467;40.114;18.306;2023-08-08T04:32:15;0.10;;;0.10;;
42192;SDS011;52467;40.114;18.306;2023-08-08T04:34:42;0.10;;;0.10;;
42192;SDS011;52467;40.114;18.306;2023-08-08T04:37:10;0.10;;;0.10;;
42192;SDS011;52467;40.114;18.306;2023-08-08T04:39:37;0.10;;;0.10;;
42192;SDS011;52467;40.114;18.306;2023-08-08T04:42:04;0.10;;;0.10;;
42192;SDS011;52467;40.114;18.306;2023-08-08T04:44:32;0.10;;;0.10;;
42192;SDS011;52467;40.114;18.306;2023-08-08T04:46:59;0.10;;;0.10;;
42192;SDS011;52467;40.114;18.306;2023-08-08T04:49:26;0.10;;;0.10;;
42192;SDS011;52467;40.114;18.306;2023-08-08T04:51:55;0.10;;;0.10;;
42192;SDS011;52467;40.114;18.306;2023-08-08T04:54:24;0.10;;;0.10;;
42192;SDS011;52467;40.114;18.306;2023-08-08T04:56:51;0.10;;;0.10;;
42192;SDS011;52467;40.114;18.306;2023-08-08T04:59:18;0.10;;;0.10;;
42192;SDS011;52467;40.114;18.306;2023-08-08T05:01:46;0.00;;;0.00;;
42192;SDS011;52467;40.114;18.306;2023-08-08T05:04:13;0.10;;;0.10;;
42192;SDS011;52467;40.114;18.306;2023-08-08T05:06:40;0.10;;;0.10;;
42192;SDS011;52467;40.114;18.306;2023-08-08T05:09:07;0.10;;;0.10;;
42192;SDS011;52467;40.114;18.306;2023-08-08T05:11:36;0.10;;;0.10;;
42192;SDS011;52467;40.114;18.306;2023-08-08T05:14:03;0.10;;;0.10;;
42192;SDS011;52467;40.114;18.306;2023-08-08T05:16:31;0.10;;;0.10;;
42192;SDS011;52467;40.114;18.306;2023-08-08T05:18:58;0.10;;;0.10;;
42192;SDS011;52467;40.114;18.306;2023-08-08T05:21:25;0.10;;;0.10;;
42192;SDS011;52467;40.114;18.306;2023-08-08T05:23:53;0.10;;;0.10;;
42192;SDS011;52467;40.114;18.306;2023-08-08T05:26:21;0.10;;;0.10;;
42192;SDS011;52467;40.114;18.306;2023-08-08T05:28:49;0.10;;;0.10;;
42192;SDS011;52467;40.114;18.306;2023-08-08T05:31:16;0.10;;;0.10;;
42192;SDS011;52467;40.114;18.306;2023-08-08T05:33:43;0.10;;;0.10;;
42192;SDS011;52467;40.114;18.306;2023-08-08T05:36:11;0.10;;;0.10;;
42192;SDS011;52467;40.114;18.306;2023-08-08T05:38:38;0.10;;;0.10;;
42192;SDS011;52467;40.114;18.306;2023-08-08T05:41:05;0.10;;;0.10;;
42192;SDS011;52467;40.114;18.306;2023-08-08T05:43:33;0.10;;;0.10;;
42192;SDS011;52467;40.114;18.306;2023-08-08T05:46:00;0.10;;;0.10;;
42192;SDS011;52467;40.114;18.306;2023-08-08T05:48:28;0.10;;;0.10;;
42192;SDS011;52467;40.114;18.306;2023-08-08T05:50:55;0.10;;;0.10;;
42192;SDS011;52467;40.114;18.306;2023-08-08T05:53:25;0.10;;;0.10;;
42192;SDS011;52467;40.114;18.306;2023-08-08T05:55:52;0.10;;;0.10;;
42192;SDS011;52467;40.114;18.306;2023-08-08T05:58:20;0.10;;;0.10;;
42192;SDS011;52467;40.114;18.306;2023-08-08T06:00:47;0.10;;;0.10;;
42192;SDS011;52467;40.114;18.306;2023-08-08T06:03:14;0.10;;;0.10;;
42192;SDS011;52467;40.114;18.306;2023-08-08T06:05:42;0.10;;;0.10;;
42192;SDS011;52467;40.114;18.306;2023-08-08T06:08:09;0.10;;;0.10;;
42192;SDS011;52467;40.114;18.306;2023-08-08T06:10:38;0.10;;;0.10;;
42192;SDS011;52467;40.114;18.306;2023-08-08T06:13:06;0.10;;;0.10;;
42192;SDS011;52467;40.114;18.306;2023-08-08T06:15:33;0.10;;;0.10;;
42192;SDS011;52467;40.114;18.306;2023-08-08T06:18:01;0.10;;;0.10;;
42192;SDS011;52467;40.114;18.306;2023-08-08T06:20:28;0.10;;;0.10;;
42192;SDS011;52467;40.114;18.306;2023-08-08T06:22:55;0.10;;;0.10;;
42192;SDS011;52467;40.114;18.306;2023-08-08T06:25:23;0.10;;;0.10;;
42192;SDS011;52467;40.114;18.306;2023-08-08T06:27:51;0.10;;;0.10;;
42192;SDS011;52467;40.114;18.306;2023-08-08T06:30:18;0.10;;;0.10;;
42192;SDS011;52467;40.114;18.306;2023-08-08T06:32:46;0.10;;;0.10;;
42192;SDS011;52467;40.114;18.306;2023-08-08T06:35:13;0.10;;;0.10;;
42192;SDS011;52467;40.114;18.306;2023-08-08T06:37:43;0.10;;;0.10;;
42192;SDS011;52467;40.114;18.306;2023-08-08T06:40:10;0.10;;;0.10;;
42192;SDS011;52467;40.114;18.306;2023-08-08T06:42:39;0.10;;;0.10;;
42192;SDS011;52467;40.114;18.306;2023-08-08T06:45:07;0.10;;;0.10;;
42192;SDS011;52467;40.114;18.306;2023-08-08T06:47:36;0.10;;;0.10;;
42192;SDS011;52467;40.114;18.306;2023-08-08T06:50:04;0.10;;;0.10;;
42192;SDS011;52467;40.114;18.306;2023-08-08T06:52:31;0.10;;;0.10;;
42192;SDS011;52467;40.114;18.306;2023-08-08T06:54:59;0.10;;;0.10;;
42192;SDS011;52467;40.114;18.306;2023-08-08T06:57:26;0.10;;;0.10;;
42192;SDS011;52467;40.114;18.306;2023-08-08T06:59:54;0.17;;;0.17;;
42192;SDS011;52467;40.114;18.306;2023-08-08T07:02:21;0.10;;;0.10;;
42192;SDS011;52467;40.114;18.306;2023-08-08T07:04:48;0.10;;;0.10;;
42192;SDS011;52467;40.114;18.306;2023-08-08T07:07:15;0.10;;;0.10;;
42192;SDS011;52467;40.114;18.306;2023-08-08T07:09:43;0.10;;;0.10;;
42192;SDS011;52467;40.114;18.306;2023-08-08T07:12:10;0.10;;;0.10;;
42192;SDS011;52467;40.114;18.306;2023-08-08T07:14:37;0.10;;;0.10;;
42192;SDS011;52467;40.114;18.306;2023-08-08T07:17:05;0.10;;;0.10;;
42192;SDS011;52467;40.114;18.306;2023-08-08T07:19:32;0.10;;;0.10;;
42192;SDS011;52467;40.114;18.306;2023-08-08T07:21:59;0.10;;;0.10;;
42192;SDS011;52467;40.114;18.306;2023-08-08T07:24:27;0.10;;;0.10;;
42192;SDS011;52467;40.114;18.306;2023-08-08T07:26:58;0.10;;;0.10;;
42192;SDS011;52467;40.114;18.306;2023-08-08T07:29:26;0.10;;;0.10;;
42192;SDS011;52467;40.114;18.306;2023-08-08T07:31:53;0.10;;;0.10;;
42192;SDS011;52467;40.114;18.306;2023-08-08T07:34:21;0.10;;;0.10;;
42192;SDS011;52467;40.114;18.306;2023-08-08T07:36:48;0.10;;;0.10;;
42192;SDS011;52467;40.114;18.306;2023-08-08T07:39:15;0.10;;;0.10;;
42192;SDS011;52467;40.114;18.306;2023-08-08T07:41:43;0.10;;;0.10;;
42192;SDS011;52467;40.114;18.306;2023-08-08T07:44:10;0.10;;;0.10;;
42192;SDS011;52467;40.114;18.306;2023-08-08T07:46:37;0.10;;;0.10;;
42192;SDS011;52467;40.114;18.306;2023-08-08T07:49:05;0.10;;;0.10;;
42192;SDS011;52467;40.114;18.306;2023-08-08T07:51:33;0.10;;;0.10;;
42192;SDS011;52467;40.114;18.306;2023-08-08T07:54:00;0.10;;;0.10;;
42192;SDS011;52467;40.114;18.306;2023-08-08T07:56:28;0.10;;;0.10;;
42192;SDS011;52467;40.114;18.306;2023-08-08T07:58:55;0.10;;;0.10;;
42192;SDS011;52467;40.114;18.306;2023-08-08T08:01:22;0.10;;;0.10;;
42192;SDS011;52467;40.114;18.306;2023-08-08T08:03:53;0.10;;;0.10;;
42192;SDS011;52467;40.114;18.306;2023-08-08T08:06:21;0.10;;;0.10;;
42192;SDS011;52467;40.114;18.306;2023-08-08T08:08:48;0.10;;;0.10;;
42192;SDS011;52467;40.114;18.306;2023-08-08T08:11:16;0.10;;;0.10;;
42192;SDS011;52467;40.114;18.306;2023-08-08T08:13:43;0.10;;;0.10;;
42192;SDS011;52467;40.114;18.306;2023-08-08T08:16:11;0.10;;;0.10;;
42192;SDS011;52467;40.114;18.306;2023-08-08T08:18:38;0.10;;;0.10;;
42192;SDS011;52467;40.114;18.306;2023-08-08T08:21:05;0.10;;;0.10;;
42192;SDS011;52467;40.114;18.306;2023-08-08T08:23:33;0.10;;;0.10;;
42192;SDS011;52467;40.114;18.306;2023-08-08T08:26:00;0.10;;;0.10;;
42192;SDS011;52467;40.114;18.306;2023-08-08T08:28:28;0.10;;;0.10;;
42192;SDS011;52467;40.114;18.306;2023-08-08T08:30:55;0.10;;;0.10;;
42192;SDS011;52467;40.114;18.306;2023-08-08T08:33:22;0.10;;;0.10;;
42192;SDS011;52467;40.114;18.306;2023-08-08T08:35:49;0.10;;;0.10;;
42192;SDS011;52467;40.114;18.306;2023-08-08T08:38:17;0.10;;;0.10;;
42192;SDS011;52467;40.114;18.306;2023-08-08T08:40:44;0.10;;;0.10;;
42192;SDS011;52467;40.114;18.306;2023-08-08T08:43:13;0.10;;;0.10;;
42192;SDS011;52467;40.114;18.306;2023-08-08T08:45:43;0.10;;;0.10;;
42192;SDS011;52467;40.114;18.306;2023-08-08T08:48:10;0.10;;;0.10;;
42192;SDS011;52467;40.114;18.306;2023-08-08T08:50:38;0.10;;;0.10;;
42192;SDS011;52467;40.114;18.306;2023-08-08T08:53:07;0.10;;;0.10;;
42192;SDS011;52467;40.114;18.306;2023-08-08T08:55:34;0.10;;;0.10;;
42192;SDS011;52467;40.114;18.306;2023-08-08T08:58:02;0.10;;;0.10;;
42192;SDS011;52467;40.114;18.306;2023-08-08T09:00:30;0.10;;;0.10;;
42192;SDS011;52467;40.114;18.306;2023-08-08T09:02:58;0.10;;;0.10;;
42192;SDS011;52467;40.114;18.306;2023-08-08T09:05:25;0.10;;;0.10;;
42192;SDS011;52467;40.114;18.306;2023-08-08T09:07:53;0.10;;;0.10;;
42192;SDS011;52467;40.114;18.306;2023-08-08T09:10:20;0.10;;;0.10;;
42192;SDS011;52467;40.114;18.306;2023-08-08T09:12:48;0.10;;;0.10;;
42192;SDS011;52467;40.114;18.306;2023-08-08T09:15:16;0.10;;;0.10;;
42192;SDS011;52467;40.114;18.306;2023-08-08T09:17:44;0.10;;;0.10;;
42192;SDS011;52467;40.114;18.306;2023-08-08T09:20:13;0.10;;;0.10;;
42192;SDS011;52467;40.114;18.306;2023-08-08T09:22:41;0.10;;;0.10;;
42192;SDS011;52467;40.114;18.306;2023-08-08T09:25:09;0.05;;;0.05;;
42192;SDS011;52467;40.114;18.306;2023-08-08T09:27:36;0.10;;;0.10;;
42192;SDS011;52467;40.114;18.306;2023-08-08T09:30:03;0.10;;;0.10;;
42192;SDS011;52467;40.114;18.306;2023-08-08T09:32:31;0.10;;;0.10;;
42192;SDS011;52467;40.114;18.306;2023-08-08T09:34:59;0.10;;;0.10;;
42192;SDS011;52467;40.114;18.306;2023-08-08T09:37:28;0.10;;;0.10;;
42192;SDS011;52467;40.114;18.306;2023-08-08T09:39:56;0.10;;;0.10;;
42192;SDS011;52467;40.114;18.306;2023-08-08T09:42:25;0.10;;;0.10;;
42192;SDS011;52467;40.114;18.306;2023-08-08T09:44:54;0.00;;;0.00;;
42192;SDS011;52467;40.114;18.306;2023-08-08T09:47:23;0.10;;;0.10;;
42192;SDS011;52467;40.114;18.306;2023-08-08T09:49:51;0.10;;;0.10;;
42192;SDS011;52467;40.114;18.306;2023-08-08T09:52:18;0.10;;;0.10;;
42192;SDS011;52467;40.114;18.306;2023-08-08T09:54:46;0.10;;;0.10;;
42192;SDS011;52467;40.114;18.306;2023-08-08T09:57:14;0.10;;;0.10;;
42192;SDS011;52467;40.114;18.306;2023-08-08T09:59:41;0.10;;;0.10;;
42192;SDS011;52467;40.114;18.306;2023-08-08T10:02:09;0.10;;;0.10;;
42192;SDS011;52467;40.114;18.306;2023-08-08T10:04:41;0.10;;;0.10;;
42192;SDS011;52467;40.114;18.306;2023-08-08T10:07:09;0.10;;;0.10;;
42192;SDS011;52467;40.114;18.306;2023-08-08T10:09:36;0.10;;;0.10;;
42192;SDS011;52467;40.114;18.306;2023-08-08T10:12:04;0.10;;;0.10;;
42192;SDS011;52467;40.114;18.306;2023-08-08T10:14:34;0.10;;;0.10;;
42192;SDS011;52467;40.114;18.306;2023-08-08T10:17:06;0.10;;;0.10;;
42192;SDS011;52467;40.114;18.306;2023-08-08T10:19:34;0.10;;;0.10;;
42192;SDS011;52467;40.114;18.306;2023-08-08T10:22:03;0.10;;;0.10;;
42192;SDS011;52467;40.114;18.306;2023-08-08T10:24:34;0.05;;;0.05;;
42192;SDS011;52467;40.114;18.306;2023-08-08T10:27:02;0.10;;;0.10;;
42192;SDS011;52467;40.114;18.306;2023-08-08T10:29:31;0.10;;;0.10;;
42192;SDS011;52467;40.114;18.306;2023-08-08T10:32:01;0.10;;;0.10;;
42192;SDS011;52467;40.114;18.306;2023-08-08T10:34:42;0.10;;;0.10;;
42192;SDS011;52467;40.114;18.306;2023-08-08T10:37:11;0.10;;;0.10;;
42192;SDS011;52467;40.114;18.306;2023-08-08T10:42:25;0.10;;;0.10;;
42192;SDS011;52467;40.114;18.306;2023-08-08T10:44:54;0.10;;;0.10;;
42192;SDS011;52467;40.114;18.306;2023-08-08T10:47:26;0.10;;;0.10;;
42192;SDS011;52467;40.114;18.306;2023-08-08T10:50:21;0.10;;;0.10;;
42192;SDS011;52467;40.114;18.306;2023-08-08T10:55:56;0.10;;;0.10;;
42192;SDS011;52467;40.114;18.306;2023-08-08T10:58:22;0.10;;;0.10;;
42192;SDS011;52467;40.114;18.306;2023-08-08T11:00:50;0.10;;;0.10;;
42192;SDS011;52467;40.114;18.306;2023-08-08T11:03:18;0.10;;;0.10;;
42192;SDS011;52467;40.114;18.306;2023-08-08T11:05:46;0.10;;;0.10;;
42192;SDS011;52467;40.114;18.306;2023-08-08T11:08:17;0.10;;;0.10;;
42192;SDS011;52467;40.114;18.306;2023-08-08T11:10:45;0.10;;;0.10;;
42192;SDS011;52467;40.114;18.306;2023-08-08T11:13:18;0.10;;;0.10;;
42192;SDS011;52467;40.114;18.306;2023-08-08T11:15:46;0.10;;;0.10;;
42192;SDS011;52467;40.114;18.306;2023-08-08T11:18:14;0.10;;;0.10;;
42192;SDS011;52467;40.114;18.306;2023-08-08T11:20:42;0.10;;;0.10;;
42192;SDS011;52467;40.114;18.306;2023-08-08T11:23:10;0.10;;;0.10;;
42192;SDS011;52467;40.114;18.306;2023-08-08T11:25:41;0.10;;;0.10;;
42192;SDS011;52467;40.114;18.306;2023-08-08T11:28:10;0.10;;;0.10;;
42192;SDS011;52467;40.114;18.306;2023-08-08T11:30:40;0.10;;;0.10;;
42192;SDS011;52467;40.114;18.306;2023-08-08T11:33:14;0.10;;;0.10;;
42192;SDS011;52467;40.114;18.306;2023-08-08T11:35:45;0.10;;;0.10;;
42192;SDS011;52467;40.114;18.306;2023-08-08T11:38:13;0.10;;;0.10;;
42192;SDS011;52467;40.114;18.306;2023-08-08T11:40:41;0.10;;;0.10;;
42192;SDS011;52467;40.114;18.306;2023-08-08T11:43:09;0.10;;;0.10;;
42192;SDS011;52467;40.114;18.306;2023-08-08T11:45:38;0.10;;;0.10;;
42192;SDS011;52467;40.114;18.306;2023-08-08T11:48:05;0.10;;;0.10;;
42192;SDS011;52467;40.114;18.306;2023-08-08T11:50:36;0.08;;;0.08;;
42192;SDS011;52467;40.114;18.306;2023-08-08T11:53:04;0.10;;;0.10;;
42192;SDS011;52467;40.114;18.306;2023-08-08T11:55:32;0.10;;;0.10;;
42192;SDS011;52467;40.114;18.306;2023-08-08T11:58:00;0.10;;;0.10;;
42192;SDS011;52467;40.114;18.306;2023-08-08T12:00:28;0.10;;;0.10;;
42192;SDS011;52467;40.114;18.306;2023-08-08T12:02:57;0.10;;;0.10;;
42192;SDS011;52467;40.114;18.306;2023-08-08T12:05:25;0.10;;;0.10;;
42192;SDS011;52467;40.114;18.306;2023-08-08T12:07:54;0.10;;;0.10;;
42192;SDS011;52467;40.114;18.306;2023-08-08T12:10:22;0.10;;;0.10;;
42192;SDS011;52467;40.114;18.306;2023-08-08T12:12:54;0.10;;;0.10;;
42192;SDS011;52467;40.114;18.306;2023-08-08T12:15:27;0.10;;;0.10;;
42192;SDS011;52467;40.114;18.306;2023-08-08T12:17:57;0.10;;;0.10;;
42192;SDS011;52467;40.114;18.306;2023-08-08T12:20:27;0.00;;;0.00;;
42192;SDS011;52467;40.114;18.306;2023-08-08T12:22:56;0.10;;;0.10;;
42192;SDS011;52467;40.114;18.306;2023-08-08T12:25:24;0.10;;;0.10;;
42192;SDS011;52467;40.114;18.306;2023-08-08T12:27:51;0.10;;;0.10;;
42192;SDS011;52467;40.114;18.306;2023-08-08T12:30:19;0.10;;;0.10;;
42192;SDS011;52467;40.114;18.306;2023-08-08T12:32:46;0.10;;;0.10;;
42192;SDS011;52467;40.114;18.306;2023-08-08T12:35:14;0.10;;;0.10;;
42192;SDS011;52467;40.114;18.306;2023-08-08T12:37:43;0.10;;;0.10;;
42192;SDS011;52467;40.114;18.306;2023-08-08T12:40:10;0.10;;;0.10;;
42192;SDS011;52467;40.114;18.306;2023-08-08T12:42:38;0.10;;;0.10;;
42192;SDS011;52467;40.114;18.306;2023-08-08T12:45:06;0.10;;;0.10;;
42192;SDS011;52467;40.114;18.306;2023-08-08T12:47:34;0.10;;;0.10;;
42192;SDS011;52467;40.114;18.306;2023-08-08T12:50:04;0.10;;;0.10;;
42192;SDS011;52467;40.114;18.306;2023-08-08T12:52:32;0.10;;;0.10;;
42192;SDS011;52467;40.114;18.306;2023-08-08T12:54:59;0.10;;;0.10;;
42192;SDS011;52467;40.114;18.306;2023-08-08T12:57:27;0.10;;;0.10;;
42192;SDS011;52467;40.114;18.306;2023-08-08T12:59:54;0.10;;;0.10;;
42192;SDS011;52467;40.114;18.306;2023-08-08T13:02:21;0.10;;;0.10;;
42192;SDS011;52467;40.114;18.306;2023-08-08T13:04:49;0.10;;;0.10;;
42192;SDS011;52467;40.114;18.306;2023-08-08T13:07:16;0.10;;;0.10;;
42192;SDS011;52467;40.114;18.306;2023-08-08T13:09:45;0.10;;;0.10;;
42192;SDS011;52467;40.114;18.306;2023-08-08T13:12:12;0.10;;;0.10;;
42192;SDS011;52467;40.114;18.306;2023-08-08T13:14:40;0.10;;;0.10;;
42192;SDS011;52467;40.114;18.306;2023-08-08T13:17:07;0.10;;;0.10;;
42192;SDS011;52467;40.114;18.306;2023-08-08T13:19:36;0.10;;;0.10;;
42192;SDS011;52467;40.114;18.306;2023-08-08T13:22:03;0.10;;;0.10;;
42192;SDS011;52467;40.114;18.306;2023-08-08T13:24:31;0.10;;;0.10;;
42192;SDS011;52467;40.114;18.306;2023-08-08T13:26:58;0.10;;;0.10;;
42192;SDS011;52467;40.114;18.306;2023-08-08T13:29:25;0.13;;;0.13;;
42192;SDS011;52467;40.114;18.306;2023-08-08T13:31:52;0.13;;;0.13;;
42192;SDS011;52467;40.114;18.306;2023-08-08T13:34:20;0.10;;;0.10;;
42192;SDS011;52467;40.114;18.306;2023-08-08T13:36:47;0.10;;;0.10;;
42192;SDS011;52467;40.114;18.306;2023-08-08T13:39:14;0.10;;;0.10;;
42192;SDS011;52467;40.114;18.306;2023-08-08T13:41:42;0.13;;;0.13;;
42192;SDS011;52467;40.114;18.306;2023-08-08T13:44:09;0.10;;;0.10;;
42192;SDS011;52467;40.114;18.306;2023-08-08T13:46:37;0.20;;;0.20;;
42192;SDS011;52467;40.114;18.306;2023-08-08T13:49:04;0.20;;;0.20;;
42192;SDS011;52467;40.114;18.306;2023-08-08T13:51:31;0.20;;;0.20;;
42192;SDS011;52467;40.114;18.306;2023-08-08T13:53:59;0.20;;;0.20;;
42192;SDS011;52467;40.114;18.306;2023-08-08T13:56:26;0.20;;;0.20;;
42192;SDS011;52467;40.114;18.306;2023-08-08T13:58:53;0.20;;;0.20;;
42192;SDS011;52467;40.114;18.306;2023-08-08T14:01:21;0.20;;;0.20;;
42192;SDS011;52467;40.114;18.306;2023-08-08T14:03:48;0.20;;;0.20;;
42192;SDS011;52467;40.114;18.306;2023-08-08T14:06:15;0.30;;;0.30;;
42192;SDS011;52467;40.114;18.306;2023-08-08T14:08:43;0.30;;;0.30;;
42192;SDS011;52467;40.114;18.306;2023-08-08T14:11:10;0.30;;;0.30;;
42192;SDS011;52467;40.114;18.306;2023-08-08T14:13:37;0.30;;;0.30;;
42192;SDS011;52467;40.114;18.306;2023-08-08T14:16:06;0.30;;;0.30;;
42192;SDS011;52467;40.114;18.306;2023-08-08T14:18:33;0.30;;;0.30;;
42192;SDS011;52467;40.114;18.306;2023-08-08T14:21:01;0.30;;;0.30;;
42192;SDS011;52467;40.114;18.306;2023-08-08T14:23:31;0.27;;;0.27;;
42192;SDS011;52467;40.114;18.306;2023-08-08T14:25:58;0.20;;;0.20;;
42192;SDS011;52467;40.114;18.306;2023-08-08T14:28:26;0.30;;;0.30;;
42192;SDS011;52467;40.114;18.306;2023-08-08T14:30:54;0.30;;;0.30;;
42192;SDS011;52467;40.114;18.306;2023-08-08T14:33:21;0.30;;;0.30;;
42192;SDS011;52467;40.114;18.306;2023-08-08T14:35:49;0.30;;;0.30;;
42192;SDS011;52467;40.114;18.306;2023-08-08T14:38:17;0.20;;;0.20;;
42192;SDS011;52467;40.114;18.306;2023-08-08T14:40:44;0.20;;;0.20;;
42192;SDS011;52467;40.114;18.306;2023-08-08T14:43:11;0.20;;;0.20;;
42192;SDS011;52467;40.114;18.306;2023-08-08T14:45:39;0.20;;;0.20;;